Terminal Aerodrome Forecast
Issued by NWS Lubbock, TX

Home | Current Version | Previous Version | Text Only | Print | Product List | Glossary On
Versions: 1 2 3 4 5 6 7 8 9 10 11 12 13 14 15
303
FTUS44 KLUB 271738
TAFLBB
TAF
KLBB 271738Z 2718/2818 22020KT P6SM FEW250
     FM280100 22011KT P6SM SCT100 BKN150
     FM281500 24022KT P6SM SCT150 BKN250=

USA.gov is the U.S. government's official web portal to all federal, state and local government web resources and services.